Time;durP1;ratioP1;P1;durP2;ratioP2;P2;SDS_P1;SDS_P2;PMS_P1;PMS_P2;Temp;Humidity;BMP_temperature;BMP_pressure;BME280_temperature;BME280_humidity;BME280_pressure;Samples;Min_cycle;Max_cycle;Signal;HPM_P1;HPM_P2
2022/11/05 00:11:05;;;;;;;9.00;8.30;;;;;;;5.42;100.00;96639.72;5019113;28;20206;-62
2022/11/05 00:19:06;;;;;;;15.13;13.57;;;;;;;5.47;100.00;96645.31;5022269;28;20685;-64
2022/11/05 00:27:09;;;;;;;11.60;9.33;;;;;;;5.64;100.00;96661.91;5021944;28;20664;-64
2022/11/05 00:29:37;;;;;;;9.43;8.63;;;;;;;5.62;100.00;96655.19;5018762;28;20347;-61
2022/11/05 00:32:05;;;;;;;8.40;7.80;;;;;;;5.68;100.00;96656.31;5021714;28;20554;-63
2022/11/05 00:34:34;;;;;;;11.33;8.07;;;;;;;5.68;100.00;96666.81;5017749;28;20233;-64
2022/11/05 00:37:02;;;;;;;8.80;8.00;;;;;;;5.72;100.00;96663.69;4995832;28;20873;-62
2022/11/05 00:39:31;;;;;;;8.97;8.03;;;;;;;5.68;100.00;96667.66;4976750;28;21281;-62
2022/11/05 00:45:03;;;;;;;9.07;7.60;;;;;;;5.57;100.00;96666.19;5024313;28;20716;-62
2022/11/05 00:50:18;;;;;;;8.60;7.90;;;;;;;5.58;100.00;96693.28;5023396;28;20597;-62
2022/11/05 00:52:56;;;;;;;12.50;11.30;;;;;;;5.61;100.00;96693.75;4998240;28;20247;-61
2022/11/05 00:55:28;;;;;;;10.63;8.70;;;;;;;5.54;100.00;96697.22;4974788;28;20234;-62
2022/11/05 00:57:56;;;;;;;7.67;7.07;;;;;;;5.50;100.00;96704.63;5023360;28;20215;-62
2022/11/05 01:00:27;;;;;;;7.70;7.10;;;;;;;5.56;100.00;96705.78;5023469;28;20400;-62
2022/11/05 01:02:58;;;;;;;7.67;7.00;;;;;;;5.63;100.00;96704.94;5024871;28;20734;-60
2022/11/05 01:05:26;;;;;;;7.10;6.60;;;;;;;5.68;100.00;96696.56;5022030;28;20294;-63
2022/11/05 01:07:55;;;;;;;7.73;6.90;;;;;;;5.76;100.00;96696.56;5000799;28;20222;-62
2022/11/05 01:10:24;;;;;;;8.13;7.43;;;;;;;5.74;100.00;96695.09;4996252;28;20429;-63
2022/11/05 01:12:54;;;;;;;8.40;7.67;;;;;;;5.69;100.00;96698.22;5013419;28;20706;-63
2022/11/05 01:15:22;;;;;;;7.67;7.07;;;;;;;5.71;100.00;96698.06;5023119;28;21136;-63
2022/11/05 01:17:51;;;;;;;7.43;6.83;;;;;;;5.64;100.00;96701.31;5025905;28;20203;-62
2022/11/05 01:20:19;;;;;;;7.77;7.17;;;;;;;5.60;100.00;96704.47;5022907;28;20774;-62
2022/11/05 01:22:47;;;;;;;7.47;6.47;;;;;;;5.61;100.00;96700.84;4999450;28;23360;-61
2022/11/05 01:25:16;;;;;;;7.13;6.43;;;;;;;5.59;100.00;96701.00;5012252;28;20207;-62
2022/11/05 01:27:45;;;;;;;6.63;6.13;;;;;;;5.65;100.00;96696.91;4995664;28;20312;-62
2022/11/05 01:30:15;;;;;;;6.67;6.07;;;;;;;5.64;100.00;96705.78;5023732;28;20204;-60
2022/11/05 01:32:43;;;;;;;7.03;6.10;;;;;;;5.67;100.00;96715.94;5021502;28;20523;-62
2022/11/05 01:35:14;;;;;;;6.60;6.10;;;;;;;5.68;100.00;96711.50;5025955;28;20838;-63
2022/11/05 01:37:43;;;;;;;6.73;6.23;;;;;;;5.72;100.00;96715.47;4998604;28;20331;-61
2022/11/05 01:40:13;;;;;;;6.53;6.03;;;;;;;5.74;100.00;96727.44;5025740;28;20210;-60
2022/11/05 01:42:41;;;;;;;6.60;6.10;;;;;;;5.73;100.00;96727.63;4977649;28;20491;-63
2022/11/05 01:45:19;;;;;;;6.70;6.10;;;;;;;5.71;100.00;96725.16;5019275;28;20207;-63
2022/11/05 01:47:56;;;;;;;7.30;6.07;;;;;;;5.72;100.00;96732.06;5023658;28;21150;-61
2022/11/05 01:50:31;;;;;;;7.33;6.30;;;;;;;5.70;100.00;96731.38;5022765;28;20263;-63
2022/11/05 01:53:05;;;;;;;5.93;5.53;;;;;;;5.67;100.00;96723.84;5024086;28;20720;-63
2022/11/05 01:55:37;;;;;;;6.90;6.30;;;;;;;5.63;100.00;96730.41;4997958;28;20226;-63
2022/11/05 01:58:07;;;;;;;6.67;5.97;;;;;;;5.58;100.00;96730.09;4977562;28;20707;-56
2022/11/05 02:00:39;;;;;;;6.53;6.03;;;;;;;5.42;100.00;96723.00;4970778;28;20654;-63
2022/11/05 02:03:07;;;;;;;5.80;5.50;;;;;;;5.42;100.00;96730.88;5022909;28;20470;-61
2022/11/05 02:05:37;;;;;;;6.97;6.37;;;;;;;5.33;100.00;96735.31;5022082;28;20674;-64
2022/11/05 02:08:05;;;;;;;6.23;5.73;;;;;;;5.32;100.00;96738.91;5022573;28;20531;-64
2022/11/05 02:10:33;;;;;;;5.83;5.43;;;;;;;5.24;100.00;96747.59;5022330;28;21669;-59
2022/11/05 02:13:02;;;;;;;5.73;5.23;;;;;;;5.22;100.00;96739.88;5021548;28;20949;-63
2022/11/05 02:15:40;;;;;;;6.30;5.80;;;;;;;5.18;100.00;96738.56;5018491;28;20214;-64
2022/11/05 02:18:16;;;;;;;6.23;5.70;;;;;;;5.16;100.00;96737.91;4998629;28;20761;-60
2022/11/05 02:20:50;;;;;;;7.17;6.53;;;;;;;5.11;100.00;96740.16;5021239;28;20212;-61
2022/11/05 02:23:43;;;;;;;7.40;6.90;;;;;;;5.09;100.00;96738.69;5000719;28;20210;-63
2022/11/05 02:26:40;;;;;;;6.97;6.37;;;;;;;5.10;100.00;96737.72;5021771;28;20191;-62
2022/11/05 02:29:35;;;;;;;7.37;6.77;;;;;;;5.05;100.00;96743.44;5021210;28;20590;-61
2022/11/05 02:32:10;;;;;;;7.10;6.40;;;;;;;5.03;100.00;96748.03;4976980;28;20230;-60
2022/11/05 02:34:46;;;;;;;7.47;6.77;;;;;;;4.99;100.00;96744.06;5020290;28;20214;-64
2022/11/05 02:37:18;;;;;;;7.17;6.37;;;;;;;4.98;100.00;96747.69;5025187;28;20775;-61
2022/11/05 02:39:52;;;;;;;7.30;6.60;;;;;;;4.98;100.00;96752.94;4996018;28;20725;-63
2022/11/05 02:42:28;;;;;;;6.90;6.23;;;;;;;5.00;100.00;96749.19;5023277;28;20225;-62
2022/11/05 02:45:01;;;;;;;8.27;7.17;;;;;;;5.02;100.00;96746.38;5021086;28;20340;-63
2022/11/05 02:47:37;;;;;;;6.57;6.07;;;;;;;5.07;100.00;96749.34;4978332;28;20210;-64
2022/11/05 02:50:11;;;;;;;7.50;6.83;;;;;;;5.07;100.00;96744.94;5020745;28;20580;-61
2022/11/05 02:52:43;;;;;;;6.93;6.33;;;;;;;5.06;100.00;96740.66;5021946;28;20207;-63
2022/11/05 02:55:16;;;;;;;7.30;6.60;;;;;;;5.16;100.00;96740.53;4999249;28;20426;-63
2022/11/05 02:57:45;;;;;;;7.50;6.80;;;;;;;5.15;100.00;96738.88;5022339;28;20225;-62
2022/11/05 03:00:39;;;;;;;8.03;6.67;;;;;;;5.09;100.00;96738.69;5022331;28;20458;-65
2022/11/05 03:03:14;;;;;;;6.87;6.30;;;;;;;5.15;100.00;96738.88;4977271;28;21566;-62
2022/11/05 03:05:51;;;;;;;6.93;6.30;;;;;;;5.19;100.00;96739.38;5019757;28;20206;-63
2022/11/05 03:08:23;;;;;;;7.70;7.00;;;;;;;5.18;100.00;96742.97;5022395;28;20220;-62
2022/11/05 03:10:56;;;;;;;6.50;5.90;;;;;;;5.24;100.00;96746.78;4995174;28;20679;-63
2022/11/05 03:13:32;;;;;;;7.07;6.43;;;;;;;5.20;100.00;96747.09;5023389;28;20781;-64
2022/11/05 03:16:03;;;;;;;6.47;5.90;;;;;;;5.21;100.00;96754.00;5019374;28;20606;-62
2022/11/05 03:18:39;;;;;;;9.00;6.83;;;;;;;5.08;100.00;96743.13;4975304;28;20606;-63
2022/11/05 03:21:10;;;;;;;7.00;6.37;;;;;;;5.01;100.00;96750.84;5026444;28;20343;-62
2022/11/05 03:23:44;;;;;;;7.40;6.03;;;;;;;4.91;100.00;96755.38;5022038;28;20285;-61
2022/11/05 03:26:16;;;;;;;7.17;6.43;;;;;;;4.78;100.00;96761.09;4996633;28;20227;-63
2022/11/05 03:28:48;;;;;;;6.60;6.10;;;;;;;4.61;100.00;96766.25;5020264;28;21048;-63
2022/11/05 03:31:16;;;;;;;7.40;5.67;;;;;;;4.56;100.00;96757.22;5022056;28;20211;-62
2022/11/05 03:33:47;;;;;;;5.87;5.40;;;;;;;4.43;100.00;96765.50;4981427;28;20210;-62
2022/11/05 03:36:20;;;;;;;6.77;6.23;;;;;;;4.32;100.00;96770.00;5021653;28;20485;-61
2022/11/05 03:38:51;;;;;;;6.73;6.10;;;;;;;4.19;100.00;96764.38;5019536;28;20578;-63
2022/11/05 03:41:20;;;;;;;6.20;5.60;;;;;;;4.02;100.00;96772.13;5000895;28;20642;-61
2022/11/05 03:43:52;;;;;;;5.93;5.40;;;;;;;3.97;100.00;96776.16;5020823;28;20293;-62
2022/11/05 03:46:24;;;;;;;5.83;5.43;;;;;;;3.89;100.00;96777.75;5023115;28;20274;-62
2022/11/05 03:48:56;;;;;;;5.90;5.50;;;;;;;3.84;100.00;96780.00;5019571;28;20430;-64
2022/11/05 03:51:31;;;;;;;6.27;5.77;;;;;;;3.75;100.00;96794.84;4977592;28;21752;-63
2022/11/05 03:54:01;;;;;;;6.20;5.63;;;;;;;3.70;100.00;96799.72;5019047;28;20737;-60
2022/11/05 03:56:33;;;;;;;6.10;5.60;;;;;;;3.61;100.00;96795.38;5018082;28;20398;-63
2022/11/05 03:59:02;;;;;;;6.40;5.90;;;;;;;3.64;100.00;96797.69;5009763;28;20799;-62
2022/11/05 04:01:31;;;;;;;6.37;5.87;;;;;;;3.69;100.00;96802.47;5020095;28;20211;-62
2022/11/05 04:04:01;;;;;;;5.83;5.47;;;;;;;3.73;100.00;96812.50;5019956;28;20468;-62
2022/11/05 04:14:43;;;;;;;6.67;6.13;;;;;;;4.06;100.00;96838.19;4988606;28;21661;-58
2022/11/05 04:17:10;;;;;;;9.13;8.23;;;;;;;4.14;100.00;96842.66;5019379;28;20760;-63
2022/11/05 04:25:16;;;;;;;7.97;7.37;;;;;;;4.39;100.00;96850.75;5021707;28;20429;-62
2022/11/05 04:27:45;;;;;;;7.57;6.90;;;;;;;4.42;100.00;96847.81;5025024;28;20488;-58
2022/11/05 04:30:19;;;;;;;8.17;7.37;;;;;;;4.38;100.00;96849.91;5022430;28;20209;-64
2022/11/05 04:33:02;;;;;;;6.70;6.20;;;;;;;4.46;100.00;96854.38;4997951;28;20213;-63
2022/11/05 04:35:33;;;;;;;6.23;5.83;;;;;;;4.47;100.00;96853.41;5023141;28;20393;-61
2022/11/05 04:38:03;;;;;;;6.10;5.70;;;;;;;4.49;100.00;96859.31;4976983;28;25006;-62
2022/11/05 04:40:31;;;;;;;9.47;8.50;;;;;;;4.52;100.00;96864.25;5025306;28;20590;-60
2022/11/05 04:43:00;;;;;;;26.70;15.93;;;;;;;4.54;100.00;96861.47;5022234;28;20290;-63
2022/11/05 04:45:30;;;;;;;24.90;16.40;;;;;;;4.57;100.00;96864.63;4996882;28;20386;-64
2022/11/05 04:47:58;;;;;;;22.03;15.60;;;;;;;4.59;100.00;96874.97;5020310;28;20194;-63
2022/11/05 04:50:27;;;;;;;11.40;9.67;;;;;;;4.62;100.00;96878.09;5001344;28;20529;-62
2022/11/05 04:52:57;;;;;;;8.40;7.33;;;;;;;4.63;100.00;96869.25;4995235;28;20916;-64
2022/11/05 04:55:26;;;;;;;6.40;5.80;;;;;;;4.63;100.00;96871.06;5025499;28;20223;-64
2022/11/05 04:57:54;;;;;;;5.87;5.27;;;;;;;4.65;100.00;96871.75;5025453;28;20257;-65
2022/11/05 05:00:23;;;;;;;6.70;6.10;;;;;;;4.68;100.00;96876.66;5027176;28;20210;-65
2022/11/05 05:02:51;;;;;;;8.23;6.40;;;;;;;4.58;100.00;96878.59;5024645;28;20207;-65
2022/11/05 05:05:20;;;;;;;7.13;6.33;;;;;;;4.60;100.00;96876.63;5026802;28;21323;-63
2022/11/05 05:07:49;;;;;;;7.27;6.30;;;;;;;4.64;100.00;96865.66;5024751;28;20206;-62
2022/11/05 05:10:18;;;;;;;6.53;5.93;;;;;;;4.68;100.00;96871.44;4962903;28;20218;-63
2022/11/05 05:12:47;;;;;;;5.70;5.23;;;;;;;4.74;100.00;96877.88;5023840;28;20206;-63
2022/11/05 05:15:16;;;;;;;7.00;6.37;;;;;;;4.76;100.00;96884.59;5013262;28;20206;-64
2022/11/05 05:17:44;;;;;;;6.63;5.93;;;;;;;4.74;100.00;96886.56;5017789;28;20222;-64
2022/11/05 05:22:58;;;;;;;6.20;5.63;;;;;;;4.78;100.00;96889.69;5025083;28;20224;-63
2022/11/05 05:25:27;;;;;;;6.93;6.40;;;;;;;4.71;100.00;96904.41;4989624;28;22385;-63
2022/11/05 05:27:57;;;;;;;6.20;5.70;;;;;;;4.71;100.00;96899.16;5024554;28;20214;-64
2022/11/05 05:30:25;;;;;;;6.33;5.80;;;;;;;4.74;100.00;96904.13;5022661;28;20203;-63
2022/11/05 05:32:53;;;;;;;7.03;6.33;;;;;;;4.74;100.00;96904.13;5007125;28;20214;-61
2022/11/05 05:35:22;;;;;;;8.03;7.43;;;;;;;4.72;100.00;96895.53;4998562;28;20210;-64
2022/11/05 05:37:51;;;;;;;8.43;7.60;;;;;;;4.80;100.00;96908.75;5025327;28;20240;-62
2022/11/05 05:40:19;;;;;;;7.57;6.97;;;;;;;4.79;100.00;96909.72;4945658;28;20222;-58
2022/11/05 05:42:53;;;;;;;8.67;7.87;;;;;;;4.86;100.00;96904.66;5020237;28;20211;-61
2022/11/05 05:45:22;;;;;;;8.70;7.97;;;;;;;4.71;100.00;96910.47;4995214;28;20899;-60
2022/11/05 05:47:50;;;;;;;7.90;7.17;;;;;;;4.72;100.00;96916.53;4993433;28;20209;-64
2022/11/05 05:50:18;;;;;;;8.10;7.40;;;;;;;4.70;100.00;96911.47;5002915;28;20211;-64
2022/11/05 05:52:47;;;;;;;8.83;7.87;;;;;;;4.66;100.00;96911.91;5024944;28;21212;-57
2022/11/05 05:55:15;;;;;;;8.57;7.77;;;;;;;4.54;100.00;96903.44;4981314;28;20219;-63
2022/11/05 05:57:43;;;;;;;8.30;7.63;;;;;;;4.61;100.00;96910.56;5022576;28;20999;-61
2022/11/05 06:00:14;;;;;;;8.53;7.83;;;;;;;4.67;100.00;96914.41;5026519;28;20207;-63
2022/11/05 06:02:42;;;;;;;8.83;7.90;;;;;;;4.66;100.00;96907.50;5000633;28;21094;-63
2022/11/05 06:05:11;;;;;;;8.17;7.37;;;;;;;4.69;100.00;96908.97;5025811;28;20217;-62
2022/11/05 06:07:39;;;;;;;7.47;6.87;;;;;;;4.69;100.00;96912.44;5001137;28;20207;-62
2022/11/05 06:10:08;;;;;;;8.50;7.67;;;;;;;4.76;100.00;96920.53;4991031;28;20218;-59
2022/11/05 06:12:36;;;;;;;9.67;8.37;;;;;;;4.65;100.00;96921.59;5021865;28;20213;-62
2022/11/05 06:15:05;;;;;;;6.93;6.40;;;;;;;4.60;100.00;96926.47;4986975;28;20451;-58
2022/11/05 06:17:34;;;;;;;10.17;7.07;;;;;;;4.62;100.00;96932.41;4998344;28;20210;-61
2022/11/05 06:20:03;;;;;;;8.80;7.63;;;;;;;4.69;100.00;96932.59;5024710;28;20630;-61
2022/11/05 06:22:31;;;;;;;24.80;9.70;;;;;;;4.62;100.00;96935.84;4987511;28;20994;-61
2022/11/05 06:24:59;;;;;;;7.10;6.43;;;;;;;4.62;100.00;96943.72;4998091;28;20206;-64
2022/11/05 06:27:28;;;;;;;8.50;7.70;;;;;;;4.68;100.00;96946.69;5001309;28;20299;-63
2022/11/05 06:29:56;;;;;;;7.67;6.90;;;;;;;4.70;100.00;96952.63;5022110;28;20944;-63
2022/11/05 06:32:25;;;;;;;9.77;8.23;;;;;;;4.70;100.00;96961.31;4985480;28;20247;-63
2022/11/05 06:34:54;;;;;;;8.43;7.73;;;;;;;4.72;100.00;96963.78;5009330;28;20214;-60
2022/11/05 06:37:23;;;;;;;7.40;6.90;;;;;;;4.67;100.00;96969.50;5000320;28;20882;-62
2022/11/05 06:39:51;;;;;;;8.50;7.80;;;;;;;4.67;100.00;96971.28;5026545;28;20233;-62
2022/11/05 06:42:20;;;;;;;9.80;8.80;;;;;;;4.63;100.00;96970.78;5012548;28;20207;-63
2022/11/05 06:44:48;;;;;;;9.90;9.10;;;;;;;4.63;100.00;96976.84;5017500;28;20234;-63
2022/11/05 06:47:17;;;;;;;10.57;9.57;;;;;;;4.72;100.00;96977.75;4978357;28;20215;-64
2022/11/05 06:49:45;;;;;;;10.03;9.13;;;;;;;4.80;100.00;96982.25;5014980;28;20354;-62
2022/11/05 06:52:15;;;;;;;8.50;7.80;;;;;;;4.88;100.00;96981.47;5003497;28;21483;-61
2022/11/05 06:54:44;;;;;;;8.03;7.47;;;;;;;4.97;100.00;96993.69;5022964;28;20729;-61
2022/11/05 06:57:13;;;;;;;8.93;8.20;;;;;;;5.04;100.00;96999.97;5024068;28;20206;-63
2022/11/05 06:59:41;;;;;;;10.97;9.83;;;;;;;5.15;100.00;97006.78;4999951;28;20237;-60
2022/11/05 07:02:12;;;;;;;8.90;8.00;;;;;;;5.25;100.00;97006.66;4979624;28;20730;-64
2022/11/05 07:04:40;;;;;;;9.43;8.03;;;;;;;5.22;100.00;97005.19;5023475;28;20816;-62
2022/11/05 07:07:08;;;;;;;12.07;10.87;;;;;;;5.24;100.00;97012.09;5024852;28;20203;-61
2022/11/05 07:09:41;;;;;;;11.50;10.50;;;;;;;5.21;100.00;97016.66;4998033;28;20238;-62
2022/11/05 07:12:10;;;;;;;9.63;8.83;;;;;;;5.15;100.00;97014.66;5022386;28;21199;-60
2022/11/05 07:14:38;;;;;;;14.37;9.13;;;;;;;5.37;100.00;97028.25;4998717;28;20212;-61
2022/11/05 07:17:06;;;;;;;8.43;7.73;;;;;;;5.53;100.00;97027.53;4985134;28;20217;-62
2022/11/05 07:19:34;;;;;;;8.97;8.27;;;;;;;5.72;100.00;97031.72;5021066;28;20229;-61
2022/11/05 07:22:02;;;;;;;9.63;8.83;;;;;;;5.67;100.00;97034.00;5024023;28;20206;-60
2022/11/05 07:24:30;;;;;;;8.23;7.67;;;;;;;5.78;100.00;97035.56;4998165;28;20217;-65
2022/11/05 07:27:00;;;;;;;11.43;10.43;;;;;;;5.71;100.00;97037.16;5026327;28;20206;-62
2022/11/05 07:29:28;;;;;;;10.33;9.43;;;;;;;5.94;100.00;97043.50;4999646;28;21173;-63
2022/11/05 07:31:56;;;;;;;10.90;10.07;;;;;;;6.12;100.00;97052.31;4984265;28;20221;-63
2022/11/05 07:34:25;;;;;;;16.03;14.63;;;;;;;6.30;100.00;97050.41;5020364;28;22353;-64
2022/11/05 07:36:53;;;;;;;14.47;13.07;;;;;;;6.45;100.00;97050.63;5024784;28;20210;-64
2022/11/05 07:39:21;;;;;;;13.03;11.73;;;;;;;6.46;100.00;97044.38;5001199;28;20231;-62
2022/11/05 07:41:51;;;;;;;9.70;8.90;;;;;;;6.64;100.00;97040.78;5023378;28;20207;-62
2022/11/05 07:44:21;;;;;;;8.90;8.20;;;;;;;6.63;100.00;97047.03;4998087;28;20225;-64
2022/11/05 07:46:50;;;;;;;9.57;8.60;;;;;;;6.66;100.00;97047.53;5002552;28;20238;-64
2022/11/05 07:49:18;;;;;;;8.20;7.50;;;;;;;6.74;100.00;97049.31;4951370;28;20230;-64
2022/11/05 07:51:46;;;;;;;7.80;7.30;;;;;;;6.93;100.00;97063.19;5015719;28;20214;-61
2022/11/05 07:54:15;;;;;;;7.70;7.00;;;;;;;6.95;100.00;97058.56;5014600;28;20203;-64
2022/11/05 07:56:43;;;;;;;7.90;7.30;;;;;;;6.98;100.00;97063.50;5013824;28;20213;-63
2022/11/05 07:59:11;;;;;;;7.77;7.30;;;;;;;7.05;100.00;97064.50;5024398;28;20223;-62
2022/11/05 08:01:41;;;;;;;7.47;6.97;;;;;;;7.11;100.00;97063.03;5001191;28;20613;-64
2022/11/05 08:04:09;;;;;;;8.40;7.63;;;;;;;7.16;100.00;97052.81;4986653;28;20207;-63
2022/11/05 08:06:38;;;;;;;8.40;7.70;;;;;;;7.29;100.00;97060.22;5000296;28;20211;-64
2022/11/05 08:09:06;;;;;;;9.50;8.60;;;;;;;7.39;100.00;97060.88;5025491;28;20225;-63
2022/11/05 08:11:34;;;;;;;10.90;9.83;;;;;;;7.53;100.00;97059.38;4972555;28;20223;-59
2022/11/05 08:14:02;;;;;;;10.03;9.23;;;;;;;7.62;100.00;97057.53;5025204;28;20855;-64
2022/11/05 08:16:31;;;;;;;10.57;9.23;;;;;;;7.86;100.00;97058.44;4986478;28;20725;-64
2022/11/05 08:19:00;;;;;;;9.93;9.10;;;;;;;7.94;100.00;97047.88;5027025;28;21000;-64
2022/11/05 08:21:28;;;;;;;15.67;14.07;;;;;;;8.17;100.00;97059.50;4969550;28;20207;-63
2022/11/05 08:23:57;;;;;;;11.97;10.87;;;;;;;7.91;100.00;97045.56;4956838;28;20396;-60
2022/11/05 08:26:25;;;;;;;11.33;10.33;;;;;;;8.05;100.00;97051.16;5019205;28;20705;-63
2022/11/05 08:28:53;;;;;;;11.63;10.53;;;;;;;8.00;100.00;97043.72;5008833;28;20218;-63
2022/11/05 08:31:21;;;;;;;10.13;9.33;;;;;;;8.15;100.00;97050.94;5022491;28;20696;-63
2022/11/05 08:33:49;;;;;;;10.87;9.57;;;;;;;8.24;100.00;97061.28;5000417;28;21555;-64
2022/11/05 08:36:19;;;;;;;10.50;9.50;;;;;;;8.05;100.00;97061.69;5021544;28;20207;-63
2022/11/05 08:38:47;;;;;;;11.23;10.23;;;;;;;7.96;100.00;97063.53;4985523;28;20911;-62
2022/11/05 08:41:15;;;;;;;10.37;9.33;;;;;;;7.97;100.00;97057.25;5021256;28;20214;-63
2022/11/05 08:43:43;;;;;;;13.23;9.73;;;;;;;7.93;100.00;97066.50;5019894;28;20197;-66
2022/11/05 08:46:11;;;;;;;9.90;9.00;;;;;;;7.69;100.00;97076.13;5023651;28;20218;-62
2022/11/05 08:48:40;;;;;;;11.63;10.63;;;;;;;7.64;100.00;97083.72;4999297;28;20230;-63
2022/11/05 08:51:08;;;;;;;11.07;10.10;;;;;;;7.80;100.00;97078.44;5024806;28;20237;-61
2022/11/05 08:53:37;;;;;;;10.67;9.67;;;;;;;7.71;100.00;97089.97;4984733;28;20759;-62
2022/11/05 08:56:06;;;;;;;10.60;9.70;;;;;;;7.88;100.00;97084.66;5023624;28;20207;-62
2022/11/05 08:58:34;;;;;;;10.00;9.17;;;;;;;7.96;100.00;97087.28;5020962;28;20218;-58
2022/11/05 09:01:04;;;;;;;10.67;9.47;;;;;;;8.01;100.00;97084.94;5023259;28;21198;-58
2022/11/05 09:03:32;;;;;;;11.93;10.90;;;;;;;8.04;100.00;97083.81;5000499;28;21248;-62
2022/11/05 09:06:01;;;;;;;11.27;9.83;;;;;;;7.98;100.00;97085.28;5028064;28;20214;-61
2022/11/05 09:08:29;;;;;;;11.13;9.50;;;;;;;8.08;100.00;97083.28;4992052;28;24780;-62
2022/11/05 09:11:00;;;;;;;10.90;9.47;;;;;;;8.06;100.00;97087.09;5026748;28;20199;-64
2022/11/05 09:13:28;;;;;;;12.33;8.93;;;;;;;8.31;100.00;97085.16;5023478;28;20431;-63
2022/11/05 09:15:58;;;;;;;10.13;9.23;;;;;;;8.59;100.00;97089.19;5023515;28;20288;-62
2022/11/05 09:18:26;;;;;;;12.73;10.33;;;;;;;9.01;100.00;97074.72;4966923;28;20226;-62
2022/11/05 09:20:55;;;;;;;10.63;9.13;;;;;;;9.29;100.00;97087.41;5024419;28;20219;-62
2022/11/05 09:23:25;;;;;;;10.60;8.63;;;;;;;9.30;100.00;97073.16;4997305;28;20320;-62
2022/11/05 09:25:54;;;;;;;10.20;9.30;;;;;;;8.86;100.00;97087.88;5011948;28;20751;-59
2022/11/05 09:28:25;;;;;;;9.80;8.90;;;;;;;9.11;100.00;97088.53;5005519;28;20868;-61
2022/11/05 09:30:53;;;;;;;10.10;9.20;;;;;;;9.25;100.00;97094.84;5017769;28;20744;-57
2022/11/05 09:33:24;;;;;;;8.77;7.93;;;;;;;8.94;100.00;97090.47;4996540;28;20207;-59
2022/11/05 09:35:53;;;;;;;9.90;8.90;;;;;;;8.81;100.00;97098.13;5010415;28;20214;-59
2022/11/05 09:38:21;;;;;;;10.40;9.27;;;;;;;8.75;100.00;97088.28;4999997;28;20401;-61
2022/11/05 09:40:55;;;;;;;9.50;8.60;;;;;;;8.72;100.00;97099.19;5004813;28;20797;-58
2022/11/05 09:43:28;;;;;;;9.30;8.50;;;;;;;8.97;100.00;97098.03;4993544;28;20604;-60
2022/11/05 09:46:02;;;;;;;8.80;7.87;;;;;;;9.22;100.00;97103.13;5024291;28;20508;-61
2022/11/05 09:48:31;;;;;;;8.83;8.03;;;;;;;9.02;100.00;97104.63;4996843;28;20417;-60
2022/11/05 09:51:00;;;;;;;8.80;8.07;;;;;;;9.14;100.00;97110.31;5022704;28;21147;-59
2022/11/05 09:53:28;;;;;;;8.67;7.97;;;;;;;9.07;100.00;97104.91;4983362;28;20327;-61
2022/11/05 09:55:58;;;;;;;10.10;8.67;;;;;;;8.80;100.00;97112.34;5021264;28;20219;-58
2022/11/05 09:58:42;;;;;;;10.13;9.23;;;;;;;8.83;100.00;97109.34;4992627;28;20317;-61
2022/11/05 10:01:13;;;;;;;9.37;8.47;;;;;;;8.86;100.00;97111.63;5024168;28;20378;-59
2022/11/05 10:03:49;;;;;;;9.63;8.83;;;;;;;8.79;100.00;97113.34;4996434;28;21489;-61
2022/11/05 10:06:20;;;;;;;9.43;8.10;;;;;;;8.66;100.00;97122.66;5023375;28;20206;-61
2022/11/05 10:08:53;;;;;;;9.70;8.80;;;;;;;8.60;100.00;97127.81;4974871;28;24788;-54
2022/11/05 10:11:23;;;;;;;9.83;8.90;;;;;;;8.65;100.00;97121.03;5022035;28;20233;-59
2022/11/05 10:13:57;;;;;;;9.73;8.93;;;;;;;8.29;100.00;97125.91;5021977;28;20459;-56
2022/11/05 10:16:27;;;;;;;10.57;9.57;;;;;;;8.45;100.00;97120.59;5022245;28;20206;-57
2022/11/05 10:18:59;;;;;;;10.50;9.43;;;;;;;8.48;100.00;97125.53;5021989;28;20454;-61
2022/11/05 10:21:27;;;;;;;10.30;9.30;;;;;;;8.63;100.00;97135.38;4996885;28;20569;-58
2022/11/05 10:24:19;;;;;;;10.90;9.90;;;;;;;8.69;100.00;97126.75;5016124;28;20222;-59
2022/11/05 10:26:49;;;;;;;10.13;9.20;;;;;;;8.95;100.00;97133.56;4994352;28;20640;-57
2022/11/05 10:29:24;;;;;;;10.27;9.33;;;;;;;8.82;100.00;97142.06;5022253;28;20222;-58
2022/11/05 10:31:53;;;;;;;11.10;9.13;;;;;;;8.98;100.00;97139.34;4963833;28;20217;-56
2022/11/05 10:34:23;;;;;;;9.70;8.90;;;;;;;9.21;100.00;97140.34;5023289;28;20214;-60
2022/11/05 10:36:53;;;;;;;9.57;8.57;;;;;;;9.33;100.00;97130.97;5019533;28;20214;-60
2022/11/05 10:39:26;;;;;;;9.83;9.03;;;;;;;9.33;100.00;97144.19;5002769;28;20223;-62
2022/11/05 10:42:13;;;;;;;9.23;8.50;;;;;;;9.42;100.00;97142.31;5022760;28;20226;-59
2022/11/05 10:44:47;;;;;;;10.00;9.00;;;;;;;9.69;100.00;97140.94;5022165;28;20202;-61
2022/11/05 10:47:41;;;;;;;8.83;8.00;;;;;;;9.79;100.00;97145.97;4975008;28;20626;-60
2022/11/05 10:50:11;;;;;;;8.53;7.83;;;;;;;9.80;100.00;97142.31;5022287;28;20223;-58
2022/11/05 10:52:42;;;;;;;9.93;8.70;;;;;;;10.05;100.00;97134.16;5018721;28;20321;-61
2022/11/05 10:55:17;;;;;;;8.90;7.97;;;;;;;10.16;100.00;97135.50;5023246;28;20207;-60
2022/11/05 10:57:48;;;;;;;9.27;8.47;;;;;;;10.18;100.00;97133.50;5022263;28;20495;-61
2022/11/05 11:00:27;;;;;;;10.90;9.80;;;;;;;10.37;96.37;97131.31;4991015;28;20226;-62
2022/11/05 11:02:58;;;;;;;8.93;8.13;;;;;;;10.56;95.04;97122.81;4974806;28;20894;-60
2022/11/05 11:05:29;;;;;;;8.30;7.60;;;;;;;10.91;92.09;97118.72;5017064;28;20206;-62
2022/11/05 11:08:04;;;;;;;9.17;8.33;;;;;;;10.69;92.60;97121.34;5019749;28;20843;-64
2022/11/05 11:10:36;;;;;;;9.63;8.73;;;;;;;10.44;93.18;97132.25;5017437;28;20418;-61
2022/11/05 11:13:05;;;;;;;8.03;7.33;;;;;;;10.79;90.27;97131.63;4973376;28;20253;-61
2022/11/05 11:15:36;;;;;;;7.87;7.17;;;;;;;10.72;90.24;97128.91;5022735;28;20206;-60
2022/11/05 11:18:25;;;;;;;7.40;6.80;;;;;;;10.57;89.01;97131.59;4988143;28;20222;-62
2022/11/05 11:20:53;;;;;;;7.17;6.50;;;;;;;10.21;89.79;97129.66;5011050;28;20234;-61
2022/11/05 11:23:22;;;;;;;7.23;6.53;;;;;;;10.01;91.95;97132.84;5021721;28;20214;-61
2022/11/05 11:25:52;;;;;;;7.60;6.80;;;;;;;10.07;92.78;97129.50;5003449;28;20240;-64
2022/11/05 11:28:24;;;;;;;7.67;7.03;;;;;;;10.18;93.19;97125.56;5020519;28;20565;-61
2022/11/05 11:30:57;;;;;;;7.33;6.80;;;;;;;10.41;92.56;97120.19;5024162;28;20277;-59
2022/11/05 11:33:27;;;;;;;7.83;7.20;;;;;;;10.07;93.08;97126.84;4985315;28;20221;-63
2022/11/05 11:35:56;;;;;;;7.13;6.57;;;;;;;10.36;92.76;97135.78;5022651;28;20257;-61
2022/11/05 11:38:25;;;;;;;7.40;6.73;;;;;;;10.96;89.74;97132.22;5021323;28;20218;-63
2022/11/05 11:41:01;;;;;;;6.30;5.80;;;;;;;11.17;85.54;97122.66;5023151;28;20234;-61
2022/11/05 11:43:30;;;;;;;7.43;6.63;;;;;;;11.52;84.18;97117.47;5022184;28;20198;-63
2022/11/05 11:46:00;;;;;;;7.90;6.60;;;;;;;11.57;83.33;97121.19;5024721;28;20315;-63
2022/11/05 11:48:35;;;;;;;6.73;5.87;;;;;;;11.02;84.42;97122.69;4989592;28;21649;-64
2022/11/05 11:51:17;;;;;;;6.20;5.73;;;;;;;10.66;85.49;97133.13;5020574;28;20678;-62
2022/11/05 11:53:48;;;;;;;5.97;5.47;;;;;;;10.35;85.64;97126.19;5023560;28;20217;-63
2022/11/05 11:56:18;;;;;;;6.27;5.70;;;;;;;10.10;87.09;97136.22;5003174;28;20207;-64
2022/11/05 11:58:48;;;;;;;7.93;5.47;;;;;;;9.89;90.70;97137.78;5023043;28;20230;-62
2022/11/05 12:02:04;;;;;;;7.30;6.10;;;;;;;10.28;89.42;97136.72;5021719;28;20262;-64
2022/11/05 12:04:52;;;;;;;5.87;5.37;;;;;;;10.59;86.51;97134.88;4925511;28;20247;-62
2022/11/05 12:07:28;;;;;;;6.60;5.07;;;;;;;10.74;86.37;97139.31;4908615;28;20830;-64
2022/11/05 12:10:10;;;;;;;5.53;5.03;;;;;;;11.05;84.62;97128.47;4958588;28;20228;-64
2022/11/05 12:12:45;;;;;;;5.67;5.10;;;;;;;11.00;82.62;97123.72;4939654;28;20246;-63
2022/11/05 12:15:25;;;;;;;8.53;5.80;;;;;;;11.03;81.98;97130.47;4938485;28;21472;-64
2022/11/05 12:17:59;;;;;;;5.67;5.07;;;;;;;11.01;81.64;97129.84;4961102;28;20215;-65
2022/11/05 12:20:40;;;;;;;5.53;4.83;;;;;;;11.11;82.05;97133.00;4926324;28;20896;-64
2022/11/05 12:23:24;;;;;;;4.60;4.20;;;;;;;11.33;80.52;97130.34;4958590;28;20208;-64
2022/11/05 12:25:56;;;;;;;4.43;4.13;;;;;;;11.57;78.78;97126.50;4962084;28;21409;-65
2022/11/05 12:28:54;;;;;;;5.50;5.00;;;;;;;11.76;78.39;97131.34;4937366;28;20237;-65
2022/11/05 12:31:47;;;;;;;5.30;4.80;;;;;;;12.00;78.46;97130.91;4961586;28;20228;-62
2022/11/05 12:34:30;;;;;;;5.40;4.10;;;;;;;12.36;78.55;97128.25;4958045;28;20239;-65